Briefing drone pour Rillieux-la-pape

Rechercher une autre localisation

Conditions de vol :


Nous sommes le : Dimanche 25 février 2024
Il est 23:48 UTC (00:48 LT)

Lever de soleil : 06:00 UTC (07:00 LT)
Coucher de soleil : 17:46 UTC (18:46 LT)

Météo

L'essentiel des conditions de vol

VIGILANCE MÉTÉO FRANCE - Rhône (69)
Pas de vigilances particulieres
CARTE TEMSI
CARTES DES FRONTS
METAR de LFLL
LFLL 242330Z AUTO 18008KT CAVOK 06/01 Q1009

Date d'émission: 24/02/2024
Heure d'émission: 23:30 UTC
Vent: 180° pour 8 KT (15 km/h)
Visibilité horizontale: > 10 km
Plafond : Plafond et visibilité OK (CAVOK)
Température: 6 °C
Point de rosée: 1 °C
Humidité: 70%
Pression (QNH): 1009 hPa
TAF de LFLL
LFLL 242200Z 2422/2524 CNL

Conditions prévues :

Heure d'émission : Bulletin éffectué le 24 à 22:00 UTC
Prévision : Valide du 24 a 22:00 UTC au 25 a 23:59 UTC
Nuages : à 0ft (0 m)
WEBCAM POUR RILLIEUX-LA-PAPE

Réglementation

Voler en sécurité

CARTES AERONAUTIQUE 1/500.000
CARTE AZBA (Reseau basse altitude)
CARTES VAC (LFLL)
SUP AIP




Chargement des AIP...
NOTAM (RILLIEUX-LA-PAPE + Terrain à proximité / FIR )




Chargement des NOTAMS...
CONTACT PREFECTURE 69
Rhône (69) : [email protected]


Avertissement : Les données mises à disposition sont indicatives. Oxygène Drone ne pourra être tenu responsable de dégâts causés aux biens et aux personnes.